Time;durP1;ratioP1;P1;durP2;ratioP2;P2;SDS_P1;SDS_P2;PMS_P1;PMS_P2;Temp;Humidity;BMP_temperature;BMP_pressure;BME280_temperature;BME280_humidity;BME280_pressure;Samples;Min_cycle;Max_cycle;Signal;HPM_P1;HPM_P2
2022/12/03 00:00:01;;;;;;;15.00;13.60;;;;;;;4.90;100.00;93483.97;5071944;28;20781;-70
2022/12/03 00:02:27;;;;;;;14.47;13.30;;;;;;;4.98;100.00;93481.06;5071195;28;20292;-71
2022/12/03 00:04:52;;;;;;;14.83;13.63;;;;;;;4.85;100.00;93477.88;5069682;28;20208;-71
2022/12/03 00:07:17;;;;;;;13.17;12.27;;;;;;;4.65;100.00;93478.16;5070946;28;20246;-71
2022/12/03 00:09:43;;;;;;;13.97;12.87;;;;;;;4.83;100.00;93496.22;5068404;28;20208;-71
2022/12/03 00:12:08;;;;;;;14.10;12.90;;;;;;;4.79;100.00;93492.47;5070996;28;20225;-70
2022/12/03 00:14:34;;;;;;;14.83;13.63;;;;;;;4.79;100.00;93504.66;5071307;28;20166;-70
2022/12/03 00:16:59;;;;;;;14.43;13.30;;;;;;;4.73;100.00;93502.94;5065448;28;20213;-70
2022/12/03 00:19:24;;;;;;;13.77;12.57;;;;;;;4.65;100.00;93506.59;5071779;28;20261;-70
2022/12/03 00:21:50;;;;;;;15.70;14.27;;;;;;;4.79;100.00;93508.00;5071147;28;20217;-70
2022/12/03 00:24:15;;;;;;;15.07;13.60;;;;;;;4.87;100.00;93507.69;5071167;28;20274;-70
2022/12/03 00:26:40;;;;;;;17.10;15.60;;;;;;;4.62;100.00;93509.63;5068392;28;20213;-70
2022/12/03 00:29:06;;;;;;;15.17;13.70;;;;;;;4.78;100.00;93503.84;5058459;28;20190;-72
2022/12/03 00:31:31;;;;;;;16.97;15.37;;;;;;;4.61;100.00;93458.94;5070429;28;20217;-71
2022/12/03 00:33:56;;;;;;;18.27;16.57;;;;;;;4.96;100.00;93506.34;5070898;28;20189;-71
2022/12/03 00:36:22;;;;;;;14.90;13.67;;;;;;;4.84;100.00;93490.03;5069107;28;20237;-71
2022/12/03 00:38:47;;;;;;;15.17;13.77;;;;;;;4.92;100.00;93513.00;5070004;28;20303;-71
2022/12/03 00:41:13;;;;;;;16.00;14.60;;;;;;;4.87;100.00;93515.44;5070984;28;20229;-71
2022/12/03 00:43:38;;;;;;;16.13;14.73;;;;;;;4.88;100.00;93516.25;5070062;28;20227;-70
2022/12/03 00:46:03;;;;;;;15.87;14.47;;;;;;;4.83;100.00;93508.34;5065558;28;20230;-71
2022/12/03 00:48:29;;;;;;;16.37;14.97;;;;;;;4.79;100.00;93505.41;5070723;28;20184;-70
2022/12/03 00:50:54;;;;;;;15.77;14.43;;;;;;;4.83;100.00;93510.94;5070261;28;20222;-72
2022/12/03 00:53:19;;;;;;;17.33;15.83;;;;;;;4.88;100.00;93524.00;5069862;28;20189;-71
2022/12/03 00:55:45;;;;;;;15.30;13.83;;;;;;;5.00;100.00;93527.41;5069887;28;20224;-71
2022/12/03 00:58:10;;;;;;;18.07;16.47;;;;;;;5.04;100.00;93527.75;5070357;28;20209;-71
2022/12/03 01:00:36;;;;;;;16.13;14.73;;;;;;;4.94;100.00;93531.69;5068907;28;20268;-71
2022/12/03 01:03:02;;;;;;;16.80;15.03;;;;;;;4.94;100.00;93534.25;5070623;28;20221;-70
2022/12/03 01:05:27;;;;;;;17.50;15.77;;;;;;;4.85;100.00;93522.66;5068288;28;20181;-71
2022/12/03 01:07:53;;;;;;;16.10;14.50;;;;;;;4.88;100.00;93535.16;5070301;28;20212;-70
2022/12/03 01:10:18;;;;;;;16.73;14.97;;;;;;;4.86;100.00;93532.00;5069718;28;20208;-71
2022/12/03 01:12:43;;;;;;;16.97;15.27;;;;;;;4.97;100.00;93541.59;5070505;28;20181;-70
2022/12/03 01:15:09;;;;;;;16.40;14.97;;;;;;;4.94;100.00;93538.63;5070309;28;20204;-71
2022/12/03 01:17:35;;;;;;;16.83;15.40;;;;;;;5.01;100.00;93538.56;5070109;28;20233;-71
2022/12/03 01:20:01;;;;;;;16.40;14.73;;;;;;;5.08;100.00;93542.63;5066022;28;20185;-70
2022/12/03 01:22:27;;;;;;;16.30;14.33;;;;;;;4.92;100.00;93549.22;5050311;28;20229;-69
2022/12/03 01:24:52;;;;;;;16.63;15.00;;;;;;;5.01;100.00;93549.69;5064105;28;20197;-70
2022/12/03 01:27:18;;;;;;;17.93;15.67;;;;;;;4.88;100.00;93542.91;5055278;28;20214;-70
2022/12/03 01:29:43;;;;;;;18.67;16.67;;;;;;;4.91;100.00;93539.88;5067726;28;20190;-70
2022/12/03 01:32:15;;;;;;;16.90;15.37;;;;;;;5.06;100.00;93544.63;5059561;28;20229;-70
2022/12/03 01:35:07;;;;;;;17.93;16.17;;;;;;;4.76;100.00;93530.94;5068338;28;20189;-70
2022/12/03 01:37:32;;;;;;;18.40;16.57;;;;;;;4.82;100.00;93553.34;5066931;28;20228;-71
2022/12/03 01:39:58;;;;;;;18.20;15.93;;;;;;;4.80;100.00;93550.97;5070353;28;20186;-70
2022/12/03 01:42:28;;;;;;;17.17;15.57;;;;;;;4.93;100.00;93537.84;5068812;28;20217;-69
2022/12/03 01:44:56;;;;;;;18.27;16.47;;;;;;;5.07;100.00;93542.84;5070118;28;20239;-70
2022/12/03 01:47:27;;;;;;;17.77;16.00;;;;;;;4.97;100.00;93536.41;5069470;28;20273;-71
2022/12/03 01:49:57;;;;;;;17.93;15.97;;;;;;;5.07;100.00;93542.84;5070249;28;20228;-69
2022/12/03 01:52:27;;;;;;;16.73;15.33;;;;;;;5.04;100.00;93553.63;5066758;28;20213;-70
2022/12/03 01:54:55;;;;;;;16.63;15.07;;;;;;;5.03;100.00;93537.31;5069653;28;20196;-69
2022/12/03 01:57:33;;;;;;;17.30;15.03;;;;;;;5.11;100.00;93546.53;5069037;28;20217;-69
2022/12/03 01:59:59;;;;;;;17.67;15.93;;;;;;;5.05;100.00;93540.47;5069936;28;20863;-70
2022/12/03 02:02:28;;;;;;;17.70;15.90;;;;;;;5.05;100.00;93543.06;5068891;28;20284;-70
2022/12/03 02:04:54;;;;;;;17.70;15.80;;;;;;;5.09;100.00;93543.41;5068011;28;21638;-70
2022/12/03 02:07:21;;;;;;;17.23;15.40;;;;;;;5.10;100.00;93547.56;5062302;28;20210;-70
2022/12/03 02:09:47;;;;;;;18.10;16.23;;;;;;;5.09;100.00;93544.19;5067618;28;20190;-70
2022/12/03 02:12:15;;;;;;;15.57;13.97;;;;;;;5.06;100.00;93536.09;5060724;28;20236;-70
2022/12/03 02:14:41;;;;;;;18.00;16.33;;;;;;;5.03;100.00;93531.38;5065657;28;21580;-70
2022/12/03 02:17:06;;;;;;;17.27;15.13;;;;;;;5.09;100.00;93546.00;5069584;28;20296;-70
2022/12/03 02:19:32;;;;;;;16.90;15.10;;;;;;;4.93;100.00;93537.84;5069463;28;20201;-70
2022/12/03 02:22:06;;;;;;;15.73;14.13;;;;;;;5.05;100.00;93544.84;5068526;28;20225;-70
2022/12/03 02:25:30;;;;;;;17.07;15.47;;;;;;;4.65;100.00;93532.47;5065376;28;20197;-69
2022/12/03 02:27:57;;;;;;;16.97;15.20;;;;;;;4.76;100.00;93542.06;5027651;28;20232;-70
2022/12/03 02:30:25;;;;;;;18.00;16.20;;;;;;;4.91;100.00;93545.06;5055078;28;20231;-71
2022/12/03 02:32:52;;;;;;;17.83;16.03;;;;;;;4.88;100.00;93540.31;5067387;28;20192;-74
2022/12/03 02:35:21;;;;;;;17.30;15.47;;;;;;;4.91;100.00;93524.34;5068881;28;20201;-71
2022/12/03 02:37:50;;;;;;;18.53;16.73;;;;;;;4.88;100.00;93521.41;5060490;28;20212;-72
2022/12/03 02:40:21;;;;;;;19.87;17.80;;;;;;;5.03;100.00;93534.72;5069116;28;20189;-72
2022/12/03 02:42:49;;;;;;;19.37;17.33;;;;;;;4.76;100.00;93490.34;5069143;28;20229;-72
2022/12/03 02:45:32;;;;;;;18.37;16.47;;;;;;;5.11;100.00;93543.94;5070205;28;20178;-70
2022/12/03 02:48:11;;;;;;;19.07;17.13;;;;;;;4.94;100.00;93544.63;5060976;28;20249;-70
2022/12/03 02:50:41;;;;;;;18.57;16.43;;;;;;;4.76;100.00;93503.28;5072165;28;20231;-70
2022/12/03 02:53:11;;;;;;;18.37;16.53;;;;;;;5.08;100.00;93534.84;5068990;28;20197;-70
2022/12/03 02:55:37;;;;;;;19.70;16.40;;;;;;;4.82;100.00;93510.13;5068626;28;20234;-70
2022/12/03 02:58:04;;;;;;;16.57;14.87;;;;;;;5.06;100.00;93536.09;5070178;28;20181;-70
2022/12/03 03:00:31;;;;;;;19.30;17.27;;;;;;;5.08;100.00;93545.19;5072243;28;20182;-69
2022/12/03 03:02:57;;;;;;;17.57;15.50;;;;;;;4.95;100.00;93520.31;5072525;28;20281;-70
2022/12/03 03:05:23;;;;;;;17.10;15.50;;;;;;;4.96;100.00;93527.06;5072164;28;20193;-71
2022/12/03 03:07:50;;;;;;;16.20;14.63;;;;;;;4.90;100.00;93546.03;5071935;28;20237;-70
2022/12/03 03:10:20;;;;;;;15.70;14.27;;;;;;;5.02;100.00;93540.13;5072071;28;20211;-71
2022/12/03 03:12:45;;;;;;;15.70;14.30;;;;;;;4.91;100.00;93534.72;5065714;28;20189;-71
2022/12/03 03:15:12;;;;;;;16.60;15.20;;;;;;;4.79;100.00;93531.28;5077346;28;20245;-71
2022/12/03 03:17:38;;;;;;;15.83;14.33;;;;;;;4.74;100.00;93536.34;5063853;28;20213;-69
2022/12/03 03:20:05;;;;;;;16.37;14.53;;;;;;;4.81;100.00;93533.66;5067839;28;20192;-71
2022/12/03 03:22:37;;;;;;;15.67;14.10;;;;;;;4.86;100.00;93537.16;5070164;28;20225;-70
2022/12/03 03:25:04;;;;;;;16.53;15.07;;;;;;;4.88;100.00;93524.81;5067131;28;20205;-70
2022/12/03 03:27:30;;;;;;;16.23;14.73;;;;;;;4.86;100.00;93521.66;5064016;28;20221;-70
2022/12/03 03:29:57;;;;;;;16.47;14.90;;;;;;;4.90;100.00;93527.94;5071655;28;20970;-67
2022/12/03 03:32:24;;;;;;;17.13;15.27;;;;;;;4.87;100.00;93519.84;5071312;28;20229;-67
2022/12/03 03:34:50;;;;;;;15.43;13.93;;;;;;;4.86;100.00;93523.44;5068548;28;20182;-68
2022/12/03 03:37:15;;;;;;;15.90;14.50;;;;;;;4.73;100.00;93531.41;5071306;28;20258;-68
2022/12/03 03:39:41;;;;;;;17.23;15.53;;;;;;;4.76;100.00;93525.78;5071664;28;20220;-68
2022/12/03 03:42:06;;;;;;;15.60;14.30;;;;;;;4.71;100.00;93533.41;5071820;28;20288;-68
2022/12/03 03:44:32;;;;;;;15.27;13.70;;;;;;;4.68;100.00;93524.31;5071590;28;20208;-68
2022/12/03 03:46:58;;;;;;;14.80;13.50;;;;;;;4.75;100.00;93531.94;5070534;28;20247;-68
2022/12/03 03:49:24;;;;;;;15.07;13.77;;;;;;;4.90;100.00;93545.28;5069170;28;20205;-68
2022/12/03 03:51:50;;;;;;;16.73;15.17;;;;;;;4.90;100.00;93553.03;5071225;28;20256;-67
2022/12/03 03:54:15;;;;;;;16.20;14.60;;;;;;;4.95;100.00;93548.78;5067960;28;20182;-68
2022/12/03 03:56:41;;;;;;;14.77;13.37;;;;;;;4.91;100.00;93552.81;5064010;28;20221;-67
2022/12/03 03:59:06;;;;;;;14.80;13.37;;;;;;;4.94;100.00;93538.63;5071531;28;20211;-69
2022/12/03 04:01:32;;;;;;;16.37;14.67;;;;;;;4.81;100.00;93524.09;5071495;28;20229;-69
2022/12/03 04:03:58;;;;;;;15.37;14.10;;;;;;;4.84;100.00;93544.34;5071137;28;20229;-68
2022/12/03 04:06:25;;;;;;;15.77;14.30;;;;;;;4.91;100.00;93549.44;5071315;28;20217;-68
2022/12/03 04:08:51;;;;;;;14.90;13.67;;;;;;;4.93;100.00;93553.38;5071319;28;20186;-70
2022/12/03 04:14:01;;;;;;;14.87;13.57;;;;;;;4.81;100.00;93552.56;5070953;28;20223;-69
2022/12/03 04:16:26;;;;;;;15.87;14.47;;;;;;;5.02;100.00;93560.81;5071203;28;20256;-68
2022/12/03 04:18:51;;;;;;;16.07;14.67;;;;;;;4.94;100.00;93561.94;5058940;28;20193;-68
2022/12/03 04:24:08;;;;;;;15.50;14.20;;;;;;;4.91;100.00;93564.97;5063093;28;20219;-68
2022/12/03 04:29:19;;;;;;;15.60;14.10;;;;;;;5.02;100.00;93574.56;5071293;28;20188;-69
2022/12/03 04:37:12;;;;;;;13.73;12.63;;;;;;;4.68;100.00;93570.84;5070629;28;20252;-68
2022/12/03 04:39:38;;;;;;;15.03;13.83;;;;;;;4.80;100.00;93579.44;5070923;28;20181;-68
2022/12/03 04:42:04;;;;;;;14.30;13.00;;;;;;;4.60;100.00;93584.06;5069505;28;20291;-68
2022/12/03 04:44:36;;;;;;;13.60;12.40;;;;;;;4.54;100.00;93566.84;5070665;28;20213;-68
2022/12/03 04:47:08;;;;;;;14.63;13.37;;;;;;;4.76;100.00;93588.63;5070463;28;20229;-68
2022/12/03 04:49:37;;;;;;;14.37;13.27;;;;;;;4.69;100.00;93571.63;5063799;28;20185;-68
2022/12/03 04:52:02;;;;;;;14.70;13.40;;;;;;;4.71;100.00;93572.19;5068624;28;20225;-67
2022/12/03 04:54:28;;;;;;;15.70;14.33;;;;;;;4.78;100.00;93571.09;5068410;28;20249;-67
2022/12/03 04:56:53;;;;;;;15.43;14.13;;;;;;;4.72;100.00;93577.16;5070015;28;20233;-68
2022/12/03 04:59:19;;;;;;;15.70;14.40;;;;;;;4.81;100.00;93569.84;5070617;28;20196;-68
2022/12/03 05:01:44;;;;;;;15.00;13.90;;;;;;;4.76;100.00;93573.09;5070126;28;20228;-69
2022/12/03 05:04:11;;;;;;;14.03;12.87;;;;;;;4.79;100.00;93577.84;5063268;28;20252;-68
2022/12/03 05:06:36;;;;;;;14.93;13.73;;;;;;;4.78;100.00;93567.72;5067979;28;20240;-68
2022/12/03 05:09:02;;;;;;;14.70;13.27;;;;;;;4.75;100.00;93563.78;5069963;28;20193;-68
2022/12/03 05:11:27;;;;;;;14.50;13.30;;;;;;;4.74;100.00;93571.75;5070182;28;20285;-68
2022/12/03 05:13:53;;;;;;;13.07;12.10;;;;;;;4.45;100.00;93555.22;5070369;28;20189;-68
2022/12/03 05:16:18;;;;;;;15.03;13.87;;;;;;;4.80;100.00;93576.84;5070142;28;20236;-68
2022/12/03 05:18:44;;;;;;;13.30;12.33;;;;;;;4.60;100.00;93583.28;5072228;28;20178;-68
2022/12/03 05:21:09;;;;;;;12.73;11.83;;;;;;;4.76;100.00;93575.69;5070764;28;20458;-68
2022/12/03 05:28:11;;;;;;;14.57;13.50;;;;;;;4.47;100.00;93578.25;4575392;27;15078776;-68
2022/12/03 05:30:36;;;;;;;12.53;11.70;;;;;;;4.59;100.00;93582.47;5133710;28;20224;-68
2022/12/03 05:33:01;;;;;;;13.67;12.57;;;;;;;4.61;100.00;93577.88;5063222;28;20189;-68
2022/12/03 05:35:27;;;;;;;18.53;16.63;;;;;;;4.54;100.00;93573.81;5086815;28;20236;-68
2022/12/03 05:37:52;;;;;;;22.70;19.43;;;;;;;4.70;100.00;93589.50;5124073;28;20221;-68
2022/12/03 05:40:18;;;;;;;17.30;15.50;;;;;;;4.64;100.00;93584.41;5123794;28;20187;-66
2022/12/03 05:42:52;;;;;;;14.43;13.23;;;;;;;4.49;100.00;93592.56;5126720;28;20243;-68
2022/12/03 05:45:32;;;;;;;13.13;12.27;;;;;;;4.79;100.00;93592.59;5124523;28;20171;-68
2022/12/03 05:47:58;;;;;;;13.17;12.20;;;;;;;4.66;100.00;93574.66;5124543;28;20203;-68
2022/12/03 05:50:26;;;;;;;15.10;13.70;;;;;;;4.82;100.00;93595.50;5122809;28;20637;-68
2022/12/03 05:52:51;;;;;;;18.80;16.80;;;;;;;4.74;100.00;93595.84;5125754;28;20566;-68
2022/12/03 05:55:17;;;;;;;16.67;15.00;;;;;;;4.77;100.00;93595.41;5122204;28;20183;-68
2022/12/03 05:57:43;;;;;;;16.90;15.47;;;;;;;4.68;100.00;93596.72;5125555;28;20214;-68
2022/12/03 06:00:15;;;;;;;16.23;14.93;;;;;;;4.83;100.00;93602.28;5123311;28;20198;-68
2022/12/03 06:02:41;;;;;;;14.90;13.77;;;;;;;4.96;100.00;93614.25;5122631;28;20207;-67
2022/12/03 06:05:08;;;;;;;13.17;12.30;;;;;;;4.94;100.00;93611.88;5124986;28;20251;-67
2022/12/03 06:07:33;;;;;;;14.73;13.73;;;;;;;5.00;100.00;93614.59;5124527;28;20222;-68
2022/12/03 06:09:58;;;;;;;15.17;14.00;;;;;;;5.01;100.00;93616.19;5125166;28;20253;-68
2022/12/03 06:12:24;;;;;;;18.30;16.73;;;;;;;5.09;100.00;93613.28;5124644;28;20215;-68
2022/12/03 06:14:49;;;;;;;16.23;14.73;;;;;;;5.14;100.00;93623.78;5124956;28;20183;-67
2022/12/03 06:17:14;;;;;;;14.03;13.00;;;;;;;5.09;100.00;93614.06;5124925;28;20630;-69
2022/12/03 06:19:40;;;;;;;16.40;15.10;;;;;;;5.12;100.00;93607.66;5121448;28;20247;-68
2022/12/03 06:22:05;;;;;;;15.07;13.97;;;;;;;5.04;100.00;93613.16;5124206;28;20231;-68
2022/12/03 06:24:31;;;;;;;15.67;14.47;;;;;;;5.11;100.00;93626.78;5124547;28;20176;-69
2022/12/03 06:26:56;;;;;;;14.63;13.43;;;;;;;5.08;100.00;93614.28;5117629;28;20232;-70
2022/12/03 06:29:21;;;;;;;14.37;13.47;;;;;;;5.05;100.00;93620.69;5124409;28;20199;-67
2022/12/03 06:31:47;;;;;;;15.43;14.50;;;;;;;5.15;100.00;93622.75;5106705;28;20203;-70
2022/12/03 06:34:12;;;;;;;14.50;13.50;;;;;;;5.17;100.00;93631.09;5123731;28;20735;-69
2022/12/03 06:36:37;;;;;;;15.67;14.37;;;;;;;4.90;100.00;93621.06;5124355;28;20204;-70
2022/12/03 06:39:03;;;;;;;17.40;15.80;;;;;;;5.11;100.00;93632.75;5114912;28;20219;-69
2022/12/03 06:41:28;;;;;;;22.83;18.47;;;;;;;5.06;100.00;93624.84;5110632;28;20237;-69
2022/12/03 06:43:53;;;;;;;19.37;17.37;;;;;;;5.07;100.00;93625.66;5111036;28;20183;-69
2022/12/03 06:46:19;;;;;;;18.70;16.70;;;;;;;5.10;100.00;93625.19;5110113;28;20224;-69
2022/12/03 06:48:44;;;;;;;16.47;14.87;;;;;;;5.10;100.00;93605.28;5109542;28;20191;-70
2022/12/03 06:51:09;;;;;;;15.47;14.17;;;;;;;5.42;100.00;93634.28;5093203;28;20951;-69
2022/12/03 06:53:35;;;;;;;15.53;14.40;;;;;;;5.48;100.00;93628.25;5106159;28;20180;-69
2022/12/03 06:56:00;;;;;;;15.33;14.07;;;;;;;5.37;100.00;93624.59;5108805;28;20230;-69
2022/12/03 06:58:26;;;;;;;16.33;14.83;;;;;;;5.31;100.00;93609.19;5105968;28;20198;-69
2022/12/03 07:00:51;;;;;;;14.13;13.07;;;;;;;5.41;100.00;93623.16;5108676;28;20284;-68
2022/12/03 07:03:16;;;;;;;15.53;14.43;;;;;;;5.50;100.00;93615.84;5110672;28;20266;-68
2022/12/03 07:05:42;;;;;;;14.60;13.50;;;;;;;5.41;100.00;93610.22;5108591;28;20211;-68
2022/12/03 07:08:07;;;;;;;13.97;12.87;;;;;;;5.45;100.00;93624.28;5107189;28;20215;-66
2022/12/03 07:10:32;;;;;;;13.53;12.73;;;;;;;5.38;100.00;93625.41;5109221;28;20330;-68
2022/12/03 07:12:58;;;;;;;13.70;12.83;;;;;;;5.41;100.00;93632.72;5108586;28;21329;-69
2022/12/03 07:15:23;;;;;;;13.23;12.33;;;;;;;5.35;100.00;93643.97;5108738;28;20198;-68
2022/12/03 07:17:48;;;;;;;14.43;13.43;;;;;;;5.26;100.00;93635.72;5107845;28;20275;-69
2022/12/03 07:20:15;;;;;;;12.57;11.57;;;;;;;5.67;100.00;93643.47;5110563;28;20192;-70
2022/12/03 07:22:40;;;;;;;14.63;13.53;;;;;;;5.76;100.00;93647.31;5108605;28;20226;-69
2022/12/03 07:25:06;;;;;;;14.10;13.00;;;;;;;5.75;100.00;93652.72;5110205;28;20251;-69
2022/12/03 07:27:31;;;;;;;14.63;13.53;;;;;;;5.69;100.00;93649.22;5105367;28;20231;-68
2022/12/03 07:29:57;;;;;;;14.77;13.60;;;;;;;5.75;99.10;93640.56;5102074;28;20199;-70
2022/12/03 07:32:22;;;;;;;14.53;13.50;;;;;;;5.73;99.68;93647.75;5105436;28;20231;-70
2022/12/03 07:34:47;;;;;;;13.90;12.90;;;;;;;5.57;100.00;93653.56;5102656;28;20247;-71
2022/12/03 07:37:13;;;;;;;14.43;13.33;;;;;;;5.75;99.39;93656.09;5091262;28;20224;-71
2022/12/03 07:39:39;;;;;;;12.87;11.97;;;;;;;5.72;98.85;93660.94;5108921;28;20233;-70
2022/12/03 07:42:04;;;;;;;12.13;11.33;;;;;;;5.70;98.80;93657.78;5106483;28;20302;-68
2022/12/03 07:44:30;;;;;;;13.07;12.20;;;;;;;5.65;99.42;93665.44;5106214;28;20206;-68
2022/12/03 07:46:56;;;;;;;13.10;12.20;;;;;;;5.61;100.00;93667.69;5110230;28;20220;-68
2022/12/03 07:49:22;;;;;;;12.97;12.13;;;;;;;5.78;98.73;93655.66;5108373;28;20187;-69
2022/12/03 07:51:52;;;;;;;13.20;12.27;;;;;;;5.69;100.00;93669.16;5109576;28;20220;-70
2022/12/03 07:54:21;;;;;;;12.97;12.13;;;;;;;5.63;100.00;93651.91;5106118;28;20255;-67
2022/12/03 07:56:47;;;;;;;13.23;12.30;;;;;;;5.70;98.81;93663.75;5107407;28;20234;-68
2022/12/03 07:59:13;;;;;;;11.53;10.67;;;;;;;5.80;97.94;93668.38;5108065;28;20196;-68
2022/12/03 08:01:39;;;;;;;11.37;10.77;;;;;;;5.86;98.81;93663.13;5108015;28;20223;-65
2022/12/03 08:04:04;;;;;;;12.27;11.37;;;;;;;5.86;97.03;93662.34;5104686;28;20197;-67
2022/12/03 08:06:29;;;;;;;13.17;12.27;;;;;;;5.73;98.97;93667.69;5108565;28;20243;-68
2022/12/03 08:08:55;;;;;;;12.30;11.50;;;;;;;4.85;100.00;93653.78;5107942;28;20196;-68
2022/12/03 08:11:20;;;;;;;12.43;11.73;;;;;;;5.27;99.61;93655.44;5107011;28;20223;-68
2022/12/03 08:13:45;;;;;;;13.00;12.00;;;;;;;5.73;98.41;93663.31;5109229;28;20187;-67
2022/12/03 08:16:15;;;;;;;13.17;12.17;;;;;;;5.79;97.53;93662.41;5105865;28;20767;-66
2022/12/03 08:18:41;;;;;;;15.77;14.37;;;;;;;6.03;98.03;93676.22;5101375;28;20275;-67
2022/12/03 08:21:15;;;;;;;15.67;14.37;;;;;;;6.24;98.02;93675.66;5108015;28;20228;-67
2022/12/03 08:23:40;;;;;;;14.30;13.30;;;;;;;6.12;95.94;93680.03;5103700;28;20203;-66
2022/12/03 08:26:16;;;;;;;15.03;14.00;;;;;;;6.07;96.79;93679.94;5108504;28;20259;-67
2022/12/03 08:28:41;;;;;;;12.83;12.03;;;;;;;6.20;96.37;93684.91;5067627;28;20277;-66
2022/12/03 08:31:19;;;;;;;14.63;13.73;;;;;;;6.19;96.02;93693.69;5065434;28;20248;-66
2022/12/03 08:33:46;;;;;;;13.33;12.43;;;;;;;6.12;96.67;93693.00;5060252;28;20247;-67
2022/12/03 08:36:28;;;;;;;13.90;12.90;;;;;;;6.05;98.19;93698.31;5069086;28;20236;-68
2022/12/03 08:39:00;;;;;;;14.70;13.60;;;;;;;6.12;98.20;93690.41;5069147;28;20185;-66
2022/12/03 08:44:25;;;;;;;13.50;12.60;;;;;;;6.29;96.49;93694.72;5062549;28;20200;-67
2022/12/03 08:47:08;;;;;;;13.73;12.60;;;;;;;6.22;96.21;93688.06;5068472;28;20243;-70
2022/12/03 08:49:38;;;;;;;13.67;12.77;;;;;;;6.17;96.00;93700.91;5064959;28;20173;-68
2022/12/03 08:52:18;;;;;;;14.97;13.83;;;;;;;6.11;97.13;93686.25;5068511;28;20221;-67
2022/12/03 08:54:50;;;;;;;13.63;12.73;;;;;;;5.99;98.52;93699.19;5066315;28;22194;-66
2022/12/03 08:57:31;;;;;;;14.57;13.37;;;;;;;6.21;98.28;93691.69;5064682;28;20222;-69
2022/12/03 09:00:18;;;;;;;14.93;13.73;;;;;;;6.25;98.07;93687.63;5064178;28;20255;-67
2022/12/03 09:02:48;;;;;;;15.00;13.87;;;;;;;6.00;97.14;93689.63;5067698;28;20209;-67
2022/12/03 09:05:22;;;;;;;14.07;13.07;;;;;;;5.62;100.00;93686.59;5061125;28;20181;-69
2022/12/03 09:07:48;;;;;;;14.47;13.40;;;;;;;6.03;99.67;93684.00;5068198;28;20220;-67
2022/12/03 09:10:14;;;;;;;14.63;13.53;;;;;;;6.19;98.91;93684.13;5063900;28;20190;-72
2022/12/03 09:12:39;;;;;;;15.60;14.33;;;;;;;6.12;98.69;93688.63;5067250;28;20186;-66
2022/12/03 09:15:05;;;;;;;19.97;18.53;;;;;;;5.54;100.00;93690.28;5068135;28;20257;-64
2022/12/03 09:17:31;;;;;;;14.70;13.70;;;;;;;5.62;100.00;93684.78;5067516;28;20289;-66
2022/12/03 09:19:56;;;;;;;14.90;13.70;;;;;;;6.07;99.41;93682.53;5065878;28;20193;-67
2022/12/03 09:22:21;;;;;;;15.03;13.93;;;;;;;5.87;98.44;93680.25;5065111;28;20280;-69
2022/12/03 09:24:47;;;;;;;15.37;14.23;;;;;;;6.14;98.95;93676.22;5068274;28;20178;-68
2022/12/03 09:27:12;;;;;;;14.77;13.57;;;;;;;6.21;98.90;93681.31;5077936;28;21358;-67
2022/12/03 09:29:38;;;;;;;14.23;13.23;;;;;;;6.41;95.50;93692.13;5104308;28;20188;-67
2022/12/03 09:32:03;;;;;;;13.80;12.97;;;;;;;6.39;95.38;93689.75;5101592;28;20216;-68
2022/12/03 09:34:28;;;;;;;15.30;14.10;;;;;;;6.19;96.48;93684.13;5108373;28;20260;-68
2022/12/03 09:36:54;;;;;;;15.50;14.13;;;;;;;6.58;95.33;93685.22;5090275;28;20292;-69
2022/12/03 09:39:19;;;;;;;14.07;13.07;;;;;;;6.50;95.35;93688.16;5096575;28;20203;-70
2022/12/03 09:41:45;;;;;;;15.03;13.90;;;;;;;6.25;95.56;93682.41;5105025;28;20234;-68
2022/12/03 09:44:10;;;;;;;15.47;13.93;;;;;;;6.32;95.28;93672.72;5106504;28;20199;-68
2022/12/03 09:46:38;;;;;;;14.73;13.43;;;;;;;6.39;95.47;93681.97;5106541;28;20291;-67
2022/12/03 09:49:06;;;;;;;14.30;13.17;;;;;;;6.21;95.68;93681.31;5105755;28;20184;-67
2022/12/03 09:51:34;;;;;;;14.70;13.60;;;;;;;6.01;96.00;93660.09;5098626;28;20288;-67
2022/12/03 09:54:02;;;;;;;15.40;14.20;;;;;;;6.03;98.01;93671.03;5102366;28;20188;-67
2022/12/03 09:56:28;;;;;;;13.87;12.87;;;;;;;6.06;97.70;93666.19;5107534;28;20235;-67
2022/12/03 09:58:53;;;;;;;13.27;12.23;;;;;;;6.45;94.73;93670.69;5108544;28;20214;-66
2022/12/03 10:01:19;;;;;;;14.00;12.93;;;;;;;6.36;95.00;93660.88;5098599;28;20212;-68
2022/12/03 10:03:49;;;;;;;14.57;13.47;;;;;;;6.46;95.26;93668.88;5098801;28;20172;-68
2022/12/03 10:06:20;;;;;;;14.53;13.33;;;;;;;6.45;94.96;93662.13;5098200;28;20228;-68
2022/12/03 10:08:53;;;;;;;13.90;12.80;;;;;;;6.33;95.58;93654.34;5100683;28;20184;-68
2022/12/03 10:11:21;;;;;;;15.60;14.27;;;;;;;6.37;95.82;93652.09;5104747;28;20235;-68
2022/12/03 10:13:47;;;;;;;15.73;14.43;;;;;;;6.42;95.14;93652.19;5106084;28;20205;-67
2022/12/03 10:16:16;;;;;;;14.27;13.13;;;;;;;6.63;93.56;93641.22;5100309;28;20258;-68
2022/12/03 10:18:46;;;;;;;15.07;13.97;;;;;;;6.73;92.65;93656.19;5111949;28;20252;-67
2022/12/03 10:21:25;;;;;;;14.73;13.53;;;;;;;6.39;95.95;93650.06;5109097;28;20283;-67
2022/12/03 10:24:16;;;;;;;14.57;13.50;;;;;;;6.52;95.63;93647.22;5108783;28;20199;-68
2022/12/03 10:26:43;;;;;;;13.03;12.23;;;;;;;6.42;94.83;93649.59;5110425;28;20284;-67
2022/12/03 10:29:30;;;;;;;13.77;12.87;;;;;;;6.31;94.91;93645.22;5106559;28;20202;-68
2022/12/03 10:32:01;;;;;;;14.50;13.40;;;;;;;6.44;95.24;93650.16;5105429;28;20231;-68
2022/12/03 10:34:32;;;;;;;13.90;12.97;;;;;;;6.65;93.04;93652.16;5107931;28;20184;-67
2022/12/03 10:37:13;;;;;;;13.30;12.40;;;;;;;6.72;92.36;93649.44;5109562;28;20223;-67
2022/12/03 10:40:11;;;;;;;14.80;13.70;;;;;;;6.67;92.46;93652.72;5107584;28;20254;-68
2022/12/03 10:42:39;;;;;;;14.57;13.47;;;;;;;6.47;93.85;93654.91;5052842;28;20225;-67
2022/12/03 10:45:17;;;;;;;14.40;13.50;;;;;;;6.42;94.68;93649.59;5106439;28;20187;-67
2022/12/03 10:48:00;;;;;;;14.53;13.53;;;;;;;6.49;94.73;93626.91;5090070;28;20234;-67
2022/12/03 10:50:26;;;;;;;15.50;14.03;;;;;;;6.64;94.64;93640.22;5085417;28;20206;-67
2022/12/03 10:52:51;;;;;;;14.00;12.90;;;;;;;6.63;94.39;93641.22;5104327;28;20201;-67
2022/12/03 10:55:16;;;;;;;14.77;13.57;;;;;;;6.60;95.35;93636.47;5089192;28;20203;-67
2022/12/03 10:57:42;;;;;;;14.83;13.83;;;;;;;6.41;95.92;93622.09;5111963;28;20203;-67
2022/12/03 11:00:14;;;;;;;15.43;14.30;;;;;;;6.66;95.06;93630.41;5104988;28;20189;-66
2022/12/03 11:02:39;;;;;;;15.43;13.93;;;;;;;6.66;95.02;93619.22;5099257;28;20204;-68
2022/12/03 11:05:05;;;;;;;15.07;13.77;;;;;;;6.82;95.00;93624.47;5102017;28;20188;-67
2022/12/03 11:07:30;;;;;;;17.57;15.73;;;;;;;6.86;96.05;93628.19;5099074;28;20235;-67
2022/12/03 11:09:57;;;;;;;15.07;13.83;;;;;;;6.86;94.20;93611.81;5099629;28;20188;-67
2022/12/03 11:12:28;;;;;;;16.27;14.90;;;;;;;6.82;94.08;93632.25;5107183;28;20220;-67
2022/12/03 11:14:53;;;;;;;16.77;15.37;;;;;;;6.90;93.16;93633.69;5110539;28;20184;-68
2022/12/03 11:17:40;;;;;;;18.10;16.30;;;;;;;6.60;94.06;93633.13;5110694;28;20243;-66
2022/12/03 11:20:18;;;;;;;16.10;14.50;;;;;;;6.14;98.00;93621.00;5107515;28;20965;-66
2022/12/03 11:22:46;;;;;;;16.37;15.10;;;;;;;6.54;95.51;93624.44;5105307;28;20197;-65
2022/12/03 11:25:24;;;;;;;15.53;14.23;;;;;;;6.95;91.99;93626.81;5105672;28;20180;-67
2022/12/03 11:28:11;;;;;;;16.67;15.43;;;;;;;6.63;93.47;93627.47;5106120;28;20527;-65
2022/12/03 11:30:52;;;;;;;16.27;14.73;;;;;;;6.79;93.68;93627.53;5102145;28;20231;-65
2022/12/03 11:33:35;;;;;;;15.07;13.87;;;;;;;6.92;91.77;93627.28;5109560;28;20176;-66
2022/12/03 11:36:04;;;;;;;14.90;13.60;;;;;;;6.89;92.50;93621.75;5106118;28;20231;-67
2022/12/03 11:38:35;;;;;;;16.17;14.97;;;;;;;6.93;92.34;93618.47;5105621;28;20184;-66
2022/12/03 11:41:20;;;;;;;15.20;14.10;;;;;;;6.95;91.25;93620.81;5110312;28;20326;-67
2022/12/03 11:43:52;;;;;;;15.83;14.57;;;;;;;6.82;91.66;93611.50;5109366;28;20202;-66